createdAt,value
2023-02-02T00:01:55.631Z,3.57
2023-02-02T00:04:34.060Z,3.59
2023-02-02T00:07:02.724Z,3.58
2023-02-02T00:09:31.555Z,3.58
2023-02-02T00:11:59.368Z,3.60
2023-02-02T00:14:26.601Z,3.58
2023-02-02T00:16:57.659Z,3.57
2023-02-02T00:19:26.969Z,3.60
2023-02-02T00:21:54.880Z,3.60
2023-02-02T00:24:22.406Z,3.62
2023-02-02T00:26:51.773Z,3.61
2023-02-02T00:29:21.892Z,3.64
2023-02-02T00:31:48.636Z,3.66
2023-02-02T00:34:16.288Z,3.68
2023-02-02T00:36:43.846Z,3.68
2023-02-02T00:39:14.142Z,3.71
2023-02-02T00:41:40.602Z,3.76
2023-02-02T00:44:26.468Z,3.79
2023-02-02T00:46:52.977Z,3.79
2023-02-02T00:49:19.398Z,3.81
2023-02-02T00:51:45.825Z,3.83
2023-02-02T00:54:14.171Z,3.86
2023-02-02T00:56:42.243Z,3.86
2023-02-02T00:59:08.853Z,3.87
2023-02-02T01:01:35.447Z,3.89
2023-02-02T01:04:01.907Z,3.90
2023-02-02T01:06:28.344Z,3.92
2023-02-02T01:08:54.856Z,3.87
2023-02-02T01:11:21.366Z,3.92
2023-02-02T01:13:47.904Z,3.91
2023-02-02T01:16:14.442Z,3.90
2023-02-02T01:18:40.916Z,3.93
2023-02-02T01:21:10.514Z,3.92
2023-02-02T01:23:38.448Z,3.94
2023-02-02T01:26:07.790Z,3.95
2023-02-02T01:28:35.329Z,3.94
2023-02-02T01:31:07.844Z,3.96
2023-02-02T01:33:34.303Z,3.91
2023-02-02T01:36:07.546Z,4.00
2023-02-02T01:38:34.962Z,3.96
2023-02-02T01:41:01.921Z,4.02
2023-02-02T01:43:53.035Z,4.03
2023-02-02T01:46:38.510Z,4.02
2023-02-02T01:49:14.771Z,4.00
2023-02-02T01:51:55.300Z,4.00
2023-02-02T01:54:40.779Z,4.01
2023-02-02T01:57:27.468Z,3.99
2023-02-02T01:59:56.972Z,3.98
2023-02-02T02:02:25.592Z,3.97
2023-02-02T02:04:52.310Z,3.96
2023-02-02T02:07:18.952Z,3.98
2023-02-02T02:09:45.351Z,3.99
2023-02-02T02:12:14.428Z,4.00
2023-02-02T02:15:03.116Z,3.98
2023-02-02T02:17:41.179Z,3.93
2023-02-02T02:20:53.322Z,3.88
2023-02-02T02:24:03.712Z,3.84
2023-02-02T02:26:48.626Z,3.84
2023-02-02T02:29:43.760Z,3.84
2023-02-02T02:32:40.899Z,3.82
2023-02-02T02:35:33.362Z,3.81
2023-02-02T02:38:20.849Z,3.80
2023-02-02T02:40:51.995Z,3.77
2023-02-02T02:43:27.081Z,3.78
2023-02-02T02:45:55.171Z,3.82
2023-02-02T02:48:22.266Z,3.84
2023-02-02T02:50:50.106Z,3.84
2023-02-02T02:53:21.368Z,3.91
2023-02-02T02:56:03.866Z,3.91
2023-02-02T02:59:07.144Z,3.97
2023-02-02T03:01:55.722Z,3.98
2023-02-02T03:04:31.261Z,4.01
2023-02-02T03:07:03.053Z,4.06
2023-02-02T03:09:35.820Z,4.07
2023-02-02T03:12:02.447Z,4.04
2023-02-02T03:14:29.020Z,4.05
2023-02-02T03:16:55.382Z,4.07
2023-02-02T03:19:21.918Z,4.07
2023-02-02T03:21:48.295Z,4.12
2023-02-02T03:24:14.693Z,4.11
2023-02-02T03:26:41.338Z,4.11
2023-02-02T03:29:07.846Z,4.06
2023-02-02T03:31:34.336Z,4.09
2023-02-02T03:34:00.760Z,4.06
2023-02-02T03:36:27.878Z,4.07
2023-02-02T03:38:54.360Z,4.03
2023-02-02T03:41:20.818Z,4.06
2023-02-02T03:43:47.189Z,3.97
2023-02-02T03:46:13.709Z,4.00
2023-02-02T03:48:40.118Z,4.02
2023-02-02T03:51:08.883Z,3.97
2023-02-02T03:53:35.644Z,3.89
2023-02-02T03:56:02.029Z,3.93
2023-02-02T03:58:28.424Z,3.90
2023-02-02T04:01:02.153Z,3.86
2023-02-02T04:03:28.560Z,3.81
2023-02-02T04:05:54.968Z,3.79
2023-02-02T04:08:21.344Z,3.77
2023-02-02T04:10:47.779Z,3.74
2023-02-02T04:13:14.156Z,3.72
2023-02-02T04:15:40.692Z,3.79
2023-02-02T04:18:07.100Z,3.74
2023-02-02T04:20:33.497Z,3.80
2023-02-02T04:23:00.021Z,3.83
2023-02-02T04:25:26.756Z,3.84
2023-02-02T04:27:53.405Z,3.85
2023-02-02T04:30:20.219Z,3.87
2023-02-02T04:32:46.817Z,3.90
2023-02-02T04:35:13.221Z,3.93
2023-02-02T04:37:39.642Z,3.93
2023-02-02T04:40:06.680Z,3.95
2023-02-02T04:42:34.919Z,3.98
2023-02-02T04:45:01.377Z,3.97
2023-02-02T04:47:27.769Z,3.96
2023-02-02T04:49:54.148Z,3.95
2023-02-02T04:52:20.656Z,3.89
2023-02-02T04:54:47.081Z,3.89
2023-02-02T04:57:13.513Z,3.87
2023-02-02T04:59:42.234Z,3.90
2023-02-02T05:02:09.199Z,3.89
2023-02-02T05:04:36.631Z,3.85
2023-02-02T05:07:03.071Z,3.84
2023-02-02T05:09:29.464Z,3.83
2023-02-02T05:11:55.863Z,3.81
2023-02-02T05:14:22.441Z,3.81
2023-02-02T05:16:49.950Z,3.81
2023-02-02T05:19:16.992Z,3.81
2023-02-02T05:21:51.158Z,3.77
2023-02-02T05:24:17.861Z,3.83
2023-02-02T05:26:44.254Z,3.82
2023-02-02T05:29:10.731Z,3.83
2023-02-02T05:31:37.217Z,3.83
2023-02-02T05:34:03.953Z,3.81
2023-02-02T05:36:30.430Z,3.79
2023-02-02T05:38:56.855Z,3.76
2023-02-02T05:41:23.279Z,3.73
2023-02-02T05:43:49.672Z,3.74
2023-02-02T05:46:16.204Z,3.77
2023-02-02T05:48:42.608Z,3.81
2023-02-02T05:51:25.572Z,3.82
2023-02-02T05:53:52.001Z,3.81
2023-02-02T05:56:18.457Z,3.81
2023-02-02T05:58:47.236Z,3.81
2023-02-02T06:01:14.191Z,3.82
2023-02-02T06:03:40.609Z,3.79
2023-02-02T06:06:07.367Z,3.82
2023-02-02T06:08:34.264Z,3.82
2023-02-02T06:11:00.752Z,3.85
2023-02-02T06:13:27.140Z,3.84
2023-02-02T06:15:53.545Z,3.86
2023-02-02T06:18:20.358Z,3.88
2023-02-02T06:20:47.590Z,3.85
2023-02-02T06:23:13.976Z,3.86
2023-02-02T06:25:40.403Z,3.84
2023-02-02T06:28:07.731Z,3.85
2023-02-02T06:30:34.235Z,3.82
2023-02-02T06:33:00.833Z,3.83
2023-02-02T06:35:27.604Z,3.84
2023-02-02T06:37:54.265Z,3.83
2023-02-02T06:40:20.851Z,3.82
2023-02-02T06:42:47.239Z,3.84
2023-02-02T06:45:13.684Z,3.85
2023-02-02T06:47:40.459Z,3.87
2023-02-02T06:50:07.293Z,3.91
2023-02-02T06:52:33.674Z,3.89
2023-02-02T06:55:00.113Z,3.93
2023-02-02T06:57:26.550Z,3.90
2023-02-02T06:59:53.000Z,3.94
2023-02-02T07:02:19.608Z,3.96
2023-02-02T07:04:46.051Z,3.95
2023-02-02T07:07:12.441Z,3.95
2023-02-02T07:09:38.847Z,3.95
2023-02-02T07:12:05.544Z,3.96
2023-02-02T07:14:32.030Z,3.96
2023-02-02T07:16:58.421Z,3.97
2023-02-02T07:19:24.893Z,3.97
2023-02-02T07:21:51.336Z,3.99
2023-02-02T07:24:17.807Z,3.98
2023-02-02T07:26:44.234Z,3.97
2023-02-02T07:29:16.796Z,3.97
2023-02-02T07:31:43.328Z,3.95
2023-02-02T07:34:09.803Z,3.96
2023-02-02T07:36:36.329Z,3.95
2023-02-02T07:39:04.555Z,3.97
2023-02-02T07:41:31.875Z,3.97
2023-02-02T07:43:58.374Z,3.97
2023-02-02T07:46:25.207Z,3.99
2023-02-02T07:48:55.405Z,3.97
2023-02-02T07:51:21.932Z,3.96
2023-02-02T07:53:50.488Z,3.94
2023-02-02T07:56:20.063Z,3.97
2023-02-02T07:58:46.560Z,3.98
2023-02-02T08:01:15.063Z,3.98
2023-02-02T08:03:42.874Z,3.99
2023-02-02T08:06:13.073Z,3.99
2023-02-02T08:08:40.204Z,4.02
2023-02-02T08:11:10.004Z,4.06
2023-02-02T08:13:36.486Z,4.02
2023-02-02T08:16:03.283Z,4.03
2023-02-02T08:18:29.742Z,4.08
2023-02-02T08:21:00.206Z,4.09
2023-02-02T08:23:27.309Z,4.15
2023-02-02T08:25:54.477Z,4.19
2023-02-02T08:28:21.303Z,4.23
2023-02-02T08:30:47.816Z,4.26
2023-02-02T08:33:14.250Z,4.28
2023-02-02T08:35:44.462Z,4.32
2023-02-02T08:38:10.854Z,4.34
2023-02-02T08:40:37.338Z,4.38
2023-02-02T08:43:04.355Z,4.43
2023-02-02T08:46:03.049Z,4.46
2023-02-02T08:48:19.745Z,4.52
2023-02-02T08:50:52.365Z,4.55
2023-02-02T08:53:18.810Z,4.61
2023-02-02T08:55:45.216Z,4.67
2023-02-02T08:58:11.647Z,4.74
2023-02-02T09:00:38.288Z,4.82
2023-02-02T09:03:04.822Z,4.80
2023-02-02T09:05:31.249Z,4.75
2023-02-02T09:07:58.104Z,4.78
2023-02-02T09:10:24.519Z,4.74
2023-02-02T09:12:50.922Z,4.74
2023-02-02T09:15:17.310Z,4.73
2023-02-02T09:17:43.724Z,4.75
2023-02-02T09:20:10.733Z,4.69
2023-02-02T09:22:37.125Z,4.78
2023-02-02T09:25:03.685Z,4.77
2023-02-02T09:27:30.096Z,4.76
2023-02-02T09:29:56.490Z,4.76
2023-02-02T09:32:22.897Z,4.78
2023-02-02T09:34:49.310Z,4.76
2023-02-02T09:37:15.700Z,4.73
2023-02-02T09:39:42.105Z,4.71
2023-02-02T09:42:31.941Z,4.69
2023-02-02T09:45:04.661Z,4.65
2023-02-02T09:47:53.775Z,4.65
2023-02-02T09:50:33.265Z,4.60
2023-02-02T09:53:05.632Z,4.58
2023-02-02T09:55:38.013Z,4.59
2023-02-02T09:58:16.557Z,4.59
2023-02-02T10:01:07.720Z,4.56
2023-02-02T10:03:42.751Z,4.51
2023-02-02T10:06:30.804Z,4.52
2023-02-02T10:09:16.866Z,4.53
2023-02-02T10:11:56.485Z,4.50
2023-02-02T10:14:31.019Z,4.56
2023-02-02T10:17:05.871Z,4.56
2023-02-02T10:19:33.768Z,4.60
2023-02-02T10:22:06.381Z,4.54
2023-02-02T10:24:35.907Z,4.56
2023-02-02T10:27:07.006Z,4.57
2023-02-02T10:29:58.388Z,4.56
2023-02-02T10:32:28.116Z,4.57
2023-02-02T10:35:16.506Z,4.55
2023-02-02T10:38:29.261Z,4.57
2023-02-02T10:40:58.331Z,4.56
2023-02-02T10:43:59.709Z,4.53
2023-02-02T10:46:33.609Z,4.53
2023-02-02T10:49:15.266Z,4.56
2023-02-02T10:51:45.142Z,4.57
2023-02-02T10:54:56.690Z,4.54
2023-02-02T10:57:48.728Z,4.51
2023-02-02T11:00:42.224Z,4.53
2023-02-02T11:03:11.329Z,4.44
2023-02-02T11:05:56.791Z,4.50
2023-02-02T11:08:40.019Z,4.52
2023-02-02T11:11:17.106Z,4.56
2023-02-02T11:14:10.670Z,4.59
2023-02-02T11:16:45.264Z,4.51
2023-02-02T11:19:17.450Z,4.64
2023-02-02T11:21:50.313Z,4.63
2023-02-02T11:24:26.590Z,4.63
2023-02-02T11:26:56.916Z,4.62
2023-02-02T11:29:37.130Z,4.63
2023-02-02T11:32:33.637Z,4.63
2023-02-02T11:35:21.197Z,4.61
2023-02-02T11:37:58.098Z,4.59
2023-02-02T11:40:30.518Z,4.57
2023-02-02T11:42:59.799Z,4.55
2023-02-02T11:45:40.894Z,4.58
2023-02-02T11:48:15.618Z,4.56
2023-02-02T11:50:53.875Z,4.57
2023-02-02T11:53:26.898Z,4.51
2023-02-02T11:55:55.190Z,4.52
2023-02-02T11:58:30.293Z,4.51
2023-02-02T12:00:58.444Z,4.46
2023-02-02T12:03:28.127Z,4.42
2023-02-02T12:05:54.654Z,4.37
2023-02-02T12:08:21.207Z,4.37
2023-02-02T12:11:03.040Z,4.35
2023-02-02T12:14:11.876Z,4.34
2023-02-02T12:16:53.536Z,4.34
2023-02-02T12:19:36.980Z,4.33
2023-02-02T12:22:29.227Z,4.32
2023-02-02T12:25:14.394Z,4.32
2023-02-02T12:27:52.092Z,4.33
2023-02-02T12:30:21.194Z,4.35
2023-02-02T12:33:17.102Z,4.38
2023-02-02T12:36:05.204Z,4.34
2023-02-02T12:38:31.752Z,4.33
2023-02-02T12:41:29.946Z,4.35
2023-02-02T12:44:22.071Z,4.37
2023-02-02T12:47:06.618Z,4.37
2023-02-02T12:50:14.786Z,4.38
2023-02-02T12:52:58.912Z,4.34
2023-02-02T12:55:34.075Z,4.31
2023-02-02T12:58:21.239Z,4.31
2023-02-02T13:01:09.672Z,4.30
2023-02-02T13:03:57.356Z,4.29
2023-02-02T13:06:53.876Z,4.30
2023-02-02T13:09:29.968Z,4.25
2023-02-02T13:12:09.790Z,4.27
2023-02-02T13:15:01.078Z,4.24
2023-02-02T13:17:29.985Z,4.23
2023-02-02T13:20:03.196Z,4.22
2023-02-02T13:22:36.122Z,4.22
2023-02-02T13:25:08.546Z,4.22
2023-02-02T13:27:36.571Z,4.24
2023-02-02T13:30:10.895Z,4.22
2023-02-02T13:32:45.220Z,4.19
2023-02-02T13:35:26.198Z,4.19
2023-02-02T13:38:23.813Z,4.21
2023-02-02T13:40:53.472Z,4.20
2023-02-02T13:43:31.129Z,4.20
2023-02-02T13:46:28.508Z,4.21
2023-02-02T13:49:10.896Z,4.20
2023-02-02T13:52:02.189Z,4.16
2023-02-02T13:54:50.647Z,4.14
2023-02-02T13:57:53.032Z,4.14
2023-02-02T14:00:23.324Z,4.12
2023-02-02T14:03:04.011Z,4.13
2023-02-02T14:05:36.955Z,4.11
2023-02-02T14:08:21.918Z,4.12
2023-02-02T14:10:54.143Z,4.11
2023-02-02T14:14:03.960Z,4.12
2023-02-02T14:16:33.086Z,4.12
2023-02-02T14:19:05.004Z,4.08
2023-02-02T14:21:31.428Z,4.07
2023-02-02T14:24:05.768Z,4.05
2023-02-02T14:26:45.663Z,4.08
2023-02-02T14:29:33.310Z,4.10
2023-02-02T14:32:01.672Z,4.11
2023-02-02T14:34:34.248Z,4.14
2023-02-02T14:37:25.256Z,4.15
2023-02-02T14:39:54.717Z,4.18
2023-02-02T14:43:05.062Z,4.21
2023-02-02T14:45:34.437Z,4.25
2023-02-02T14:48:06.663Z,4.26
2023-02-02T14:50:39.080Z,4.29
2023-02-02T14:53:08.554Z,4.30
2023-02-02T14:55:51.728Z,4.32
2023-02-02T14:58:28.985Z,4.34
2023-02-02T15:01:25.634Z,4.36
2023-02-02T15:04:00.819Z,4.38
2023-02-02T15:06:35.904Z,4.40
2023-02-02T15:09:20.555Z,4.40
2023-02-02T15:12:00.841Z,4.42
2023-02-02T15:14:56.742Z,4.42
2023-02-02T15:17:41.594Z,4.43
2023-02-02T15:20:32.097Z,4.44
2023-02-02T15:23:05.419Z,4.42
2023-02-02T15:25:42.985Z,4.43
2023-02-02T15:28:35.675Z,4.42
2023-02-02T15:31:11.448Z,4.38
2023-02-02T15:33:50.101Z,4.38
2023-02-02T15:36:23.624Z,4.39
2023-02-02T15:38:53.135Z,4.37
2023-02-02T15:41:32.275Z,4.38
2023-02-02T15:43:59.928Z,4.36
2023-02-02T15:46:32.316Z,4.35
2023-02-02T15:49:32.737Z,4.33
2023-02-02T15:52:03.226Z,4.34
2023-02-02T15:54:34.610Z,4.31
2023-02-02T15:57:01.890Z,4.30
2023-02-02T15:59:40.511Z,4.29
2023-02-02T16:02:06.953Z,4.27
2023-02-02T16:04:37.247Z,4.28
2023-02-02T16:07:12.568Z,4.29
2023-02-02T16:09:41.628Z,4.28
2023-02-02T16:12:18.185Z,4.29
2023-02-02T16:14:50.402Z,4.28
2023-02-02T16:17:23.909Z,4.30
2023-02-02T16:19:56.473Z,4.31
2023-02-02T16:22:25.333Z,4.32
2023-02-02T16:24:55.370Z,4.31
2023-02-02T16:27:26.240Z,4.32
2023-02-02T16:29:53.513Z,4.35
2023-02-02T16:32:39.182Z,4.37
2023-02-02T16:35:25.772Z,4.35
2023-02-02T16:37:52.383Z,4.36
2023-02-02T16:40:29.531Z,4.38
2023-02-02T16:43:07.350Z,4.39
2023-02-02T16:45:43.743Z,4.41
2023-02-02T16:48:32.112Z,4.42
2023-02-02T16:51:15.122Z,4.42
2023-02-02T16:53:44.864Z,4.43
2023-02-02T16:56:32.869Z,4.43
2023-02-02T16:59:05.377Z,4.40
2023-02-02T17:01:37.052Z,4.41
2023-02-02T17:04:06.115Z,4.37
2023-02-02T17:06:46.229Z,4.37
2023-02-02T17:09:35.578Z,4.35
2023-02-02T17:12:34.563Z,4.36
2023-02-02T17:15:17.049Z,4.34
2023-02-02T17:17:45.038Z,4.35
2023-02-02T17:20:13.105Z,4.34
2023-02-02T17:22:42.907Z,4.34
2023-02-02T17:25:15.776Z,4.33
2023-02-02T17:27:42.576Z,4.33
2023-02-02T17:30:17.600Z,4.32
2023-02-02T17:32:44.121Z,4.31
2023-02-02T17:35:22.359Z,4.31
2023-02-02T17:37:49.415Z,4.32
2023-02-02T17:40:17.155Z,4.32
2023-02-02T17:42:45.578Z,4.33
2023-02-02T17:45:23.006Z,4.34
2023-02-02T17:47:50.846Z,4.35
2023-02-02T17:50:18.164Z,4.34
2023-02-02T17:52:45.943Z,4.32
2023-02-02T17:55:24.663Z,4.33
2023-02-02T17:57:52.340Z,4.31
2023-02-02T18:00:21.135Z,4.30
2023-02-02T18:02:49.828Z,4.26
2023-02-02T18:05:16.926Z,4.28
2023-02-02T18:07:44.318Z,4.25
2023-02-02T18:10:12.639Z,4.28
2023-02-02T18:12:39.339Z,4.30
2023-02-02T18:15:08.616Z,4.32
2023-02-02T18:17:35.044Z,4.33
2023-02-02T18:20:01.444Z,4.32
2023-02-02T18:22:27.868Z,4.33
2023-02-02T18:24:54.309Z,4.33
2023-02-02T18:27:20.949Z,4.37
2023-02-02T18:29:47.967Z,4.37
2023-02-02T18:32:16.034Z,4.34
2023-02-02T18:34:42.438Z,4.33
2023-02-02T18:37:08.882Z,4.37
2023-02-02T18:39:35.670Z,4.39
2023-02-02T18:42:02.768Z,4.38
2023-02-02T18:44:29.485Z,4.39
2023-02-02T18:46:55.921Z,4.37
2023-02-02T18:49:22.361Z,4.37
2023-02-02T18:51:48.943Z,4.36
2023-02-02T18:54:15.393Z,4.36
2023-02-02T18:56:41.786Z,4.35
2023-02-02T18:59:08.475Z,4.31
2023-02-02T19:01:35.173Z,4.34
2023-02-02T19:04:01.769Z,4.35
2023-02-02T19:06:46.982Z,4.31
2023-02-02T19:09:14.221Z,4.33
2023-02-02T19:11:46.171Z,4.32
2023-02-02T19:14:14.236Z,4.34
2023-02-02T19:16:40.790Z,4.34
2023-02-02T19:19:21.602Z,4.35
2023-02-02T19:21:48.388Z,4.35
2023-02-02T19:24:14.868Z,4.33
2023-02-02T19:26:46.105Z,4.33
2023-02-02T19:29:20.441Z,4.36
2023-02-02T19:31:52.280Z,4.38
2023-02-02T19:34:21.221Z,4.39
2023-02-02T19:36:49.280Z,4.42
2023-02-02T19:39:19.268Z,4.43
2023-02-02T19:41:46.117Z,4.42
2023-02-02T19:44:21.150Z,4.43
2023-02-02T19:46:50.492Z,4.48
2023-02-02T19:49:28.178Z,4.49
2023-02-02T19:51:56.061Z,4.49
2023-02-02T19:54:36.361Z,4.46
2023-02-02T19:57:16.740Z,4.42
2023-02-02T19:59:47.051Z,4.42
2023-02-02T20:02:33.787Z,4.40
2023-02-02T20:05:12.041Z,4.40
2023-02-02T20:07:39.048Z,4.38
2023-02-02T20:10:18.718Z,4.38
2023-02-02T20:12:45.129Z,4.36
2023-02-02T20:15:27.800Z,4.34
2023-02-02T20:17:56.113Z,4.37
2023-02-02T20:20:29.117Z,4.37
2023-02-02T20:22:57.408Z,4.36
2023-02-02T20:25:24.028Z,4.36
2023-02-02T20:27:50.689Z,4.38
2023-02-02T20:30:25.002Z,4.36
2023-02-02T20:32:58.485Z,4.35
2023-02-02T20:35:27.630Z,4.36
2023-02-02T20:37:55.612Z,4.35
2023-02-02T20:40:26.687Z,4.36
2023-02-02T20:42:53.432Z,4.37
2023-02-02T20:45:21.546Z,4.37
2023-02-02T20:47:49.806Z,4.40
2023-02-02T20:50:19.106Z,4.41
2023-02-02T20:52:45.512Z,4.36
2023-02-02T20:55:12.142Z,4.39
2023-02-02T20:57:38.773Z,4.38
2023-02-02T21:00:07.497Z,4.37
2023-02-02T21:02:33.965Z,4.36
2023-02-02T21:05:01.336Z,4.36
2023-02-02T21:07:27.818Z,4.38
2023-02-02T21:09:54.287Z,4.37
2023-02-02T21:12:25.265Z,4.40
2023-02-02T21:14:53.105Z,4.40
2023-02-02T21:17:19.965Z,4.41
2023-02-02T21:19:46.459Z,4.42
2023-02-02T21:22:13.315Z,4.42
2023-02-02T21:24:40.302Z,4.42
2023-02-02T21:27:07.499Z,4.42
2023-02-02T21:29:34.188Z,4.44
2023-02-02T21:32:02.551Z,4.46
2023-02-02T21:34:30.565Z,4.47
2023-02-02T21:36:58.203Z,4.47
2023-02-02T21:39:36.517Z,4.48
2023-02-02T21:42:08.608Z,4.51
2023-02-02T21:44:49.686Z,4.51
2023-02-02T21:47:26.864Z,4.51
2023-02-02T21:49:55.620Z,4.42
2023-02-02T21:52:22.085Z,4.49
2023-02-02T21:54:49.217Z,4.44
2023-02-02T21:57:27.813Z,4.50
2023-02-02T21:59:56.033Z,4.49
2023-02-02T22:02:39.289Z,4.48
2023-02-02T22:05:36.503Z,4.50
2023-02-02T22:08:22.855Z,4.47
2023-02-02T22:10:49.472Z,4.47
2023-02-02T22:13:18.848Z,4.46
2023-02-02T22:15:47.347Z,4.45
2023-02-02T22:18:18.541Z,4.45
2023-02-02T22:20:47.302Z,4.47
2023-02-02T22:23:16.178Z,4.45
2023-02-02T22:25:44.421Z,4.44
2023-02-02T22:28:23.432Z,4.42
2023-02-02T22:30:54.573Z,4.42
2023-02-02T22:33:22.329Z,4.42
2023-02-02T22:35:49.078Z,4.39
2023-02-02T22:38:18.192Z,4.41
2023-02-02T22:40:45.274Z,4.41
2023-02-02T22:43:13.361Z,4.41
2023-02-02T22:45:39.856Z,4.40
2023-02-02T22:48:06.367Z,4.41
2023-02-02T22:50:34.145Z,4.41
2023-02-02T22:53:02.021Z,4.40
2023-02-02T22:55:28.731Z,4.40
2023-02-02T22:57:55.447Z,4.38
2023-02-02T23:00:25.790Z,4.40
2023-02-02T23:02:53.351Z,4.38
2023-02-02T23:05:21.135Z,4.37
2023-02-02T23:07:48.920Z,4.34
2023-02-02T23:10:18.366Z,4.35
2023-02-02T23:12:45.814Z,4.36
2023-02-02T23:15:13.836Z,4.36
2023-02-02T23:17:40.290Z,4.35
2023-02-02T23:20:09.257Z,4.31
2023-02-02T23:22:35.953Z,4.30
2023-02-02T23:25:02.425Z,4.34
2023-02-02T23:27:28.834Z,4.31
2023-02-02T23:29:55.218Z,4.29
2023-02-02T23:32:21.626Z,4.27
2023-02-02T23:34:48.007Z,4.26
2023-02-02T23:37:14.446Z,4.24
2023-02-02T23:39:40.879Z,4.23
2023-02-02T23:42:07.274Z,4.25
2023-02-02T23:44:33.649Z,4.25
2023-02-02T23:47:01.828Z,4.25
2023-02-02T23:49:30.541Z,4.25
2023-02-02T23:51:57.082Z,4.20
2023-02-02T23:54:23.742Z,4.25
2023-02-02T23:56:50.683Z,4.25
2023-02-02T23:59:17.123Z,4.25
